Time;durP1;ratioP1;P1;durP2;ratioP2;P2;SDS_P1;SDS_P2;PMS_P1;PMS_P2;Temp;Humidity;BMP_temperature;BMP_pressure;BME280_temperature;BME280_humidity;BME280_pressure;Samples;Min_cycle;Max_cycle;Signal;HPM_P1;HPM_P2
2021/12/17 00:00:21;;;;;;;19.15;3.58;;;;;;;;;;5013148;28;20056;-56
2021/12/17 00:05:18;;;;;;;24.98;3.90;;;;;;;;;;5010694;28;20064;-53
2021/12/17 00:07:43;;;;;;;22.63;4.20;;;;;;;;;;5011333;28;20061;-55
2021/12/17 00:10:17;;;;;;;17.08;3.38;;;;;;;;;;5012084;28;20061;-55
2021/12/17 00:12:44;;;;;;;14.38;3.40;;;;;;;;;;5004513;28;20175;-54
2021/12/17 00:15:10;;;;;;;19.45;3.40;;;;;;;;;;5011502;28;20046;-57
2021/12/17 00:17:46;;;;;;;19.77;3.60;;;;;;;;;;5013044;28;20025;-62
2021/12/17 00:52:49;;;;;;;18.10;2.97;;;;;;;;;;5011875;28;20025;-55
2021/12/17 00:55:14;;;;;;;19.40;3.60;;;;;;;;;;5015048;28;20429;-55
2021/12/17 00:57:42;;;;;;;24.02;4.25;;;;;;;;;;5012274;28;20156;-57
2021/12/17 01:00:13;;;;;;;21.90;3.88;;;;;;;;;;5012146;28;20046;-58
2021/12/17 01:02:40;;;;;;;16.80;2.72;;;;;;;;;;5011803;28;20160;-56
2021/12/17 01:05:10;;;;;;;24.20;4.18;;;;;;;;;;5011872;28;20022;-55
2021/12/17 01:07:40;;;;;;;20.17;3.40;;;;;;;;;;5009957;28;20026;-60
2021/12/17 01:10:11;;;;;;;25.83;4.10;;;;;;;;;;5011264;28;20038;-56
2021/12/17 01:12:36;;;;;;;24.27;3.15;;;;;;;;;;5011839;28;20533;-59
2021/12/17 01:15:05;;;;;;;24.00;3.60;;;;;;;;;;5011362;28;20049;-56
2021/12/17 01:17:33;;;;;;;23.02;3.70;;;;;;;;;;5011731;28;20112;-53
2021/12/17 01:20:21;;;;;;;25.15;4.18;;;;;;;;;;5010936;28;20136;-61
2021/12/17 01:36:22;;;;;;;20.55;4.00;;;;;;;;;;5054509;28;20032;-60
2021/12/17 01:44:09;;;;;;;18.83;3.70;;;;;;;;;;5053531;28;20025;-54
2021/12/17 01:46:36;;;;;;;20.60;4.75;;;;;;;;;;5040404;28;20078;-58
2021/12/17 02:00:03;;;;;;;21.23;4.00;;;;;;;;;;5049946;28;20029;-56
2021/12/17 02:02:32;;;;;;;18.65;3.38;;;;;;;;;;5050810;28;20754;-55
2021/12/17 02:04:58;;;;;;;22.70;4.32;;;;;;;;;;5042313;28;20040;-55
2021/12/17 02:07:24;;;;;;;18.08;3.38;;;;;;;;;;5046990;28;20032;-57
2021/12/17 02:12:36;;;;;;;14.57;2.70;;;;;;;;;;5052580;28;20107;-61
2021/12/17 02:31:56;;;;;;;25.42;4.43;;;;;;;;;;5051975;28;20021;-62
2021/12/17 02:37:11;;;;;;;19.55;3.83;;;;;;;;;;5053429;28;20027;-64
2021/12/17 02:48:24;;;;;;;20.13;4.20;;;;;;;;;;5052411;28;20071;-58
2021/12/17 02:50:57;;;;;;;20.17;3.58;;;;;;;;;;5048430;28;20480;-62
2021/12/17 02:53:24;;;;;;;18.65;3.35;;;;;;;;;;5048788;28;20044;-62
2021/12/17 02:55:53;;;;;;;19.17;3.70;;;;;;;;;;5053542;28;20024;-58
2021/12/17 02:58:22;;;;;;;23.33;4.50;;;;;;;;;;5051557;28;20021;-58
2021/12/17 03:00:48;;;;;;;22.33;3.20;;;;;;;;;;5051469;28;20029;-59
2021/12/17 03:03:15;;;;;;;18.00;3.55;;;;;;;;;;5048880;28;20029;-55
2021/12/17 03:05:42;;;;;;;22.88;3.78;;;;;;;;;;5048698;28;20022;-54
2021/12/17 03:08:12;;;;;;;13.57;3.13;;;;;;;;;;5051874;28;20032;-55
2021/12/17 03:10:38;;;;;;;12.63;4.38;;;;;;;;;;5050615;28;20025;-57
2021/12/17 03:13:05;;;;;;;13.13;3.15;;;;;;;;;;5050140;28;20495;-60
2021/12/17 03:23:33;;;;;;;15.27;3.10;;;;;;;;;;5046324;28;20113;-59
2021/12/17 03:26:01;;;;;;;18.52;4.15;;;;;;;;;;5048572;28;20630;-58
2021/12/17 03:28:27;;;;;;;16.25;3.35;;;;;;;;;;5049850;28;20029;-60
2021/12/17 03:30:53;;;;;;;14.00;3.00;;;;;;;;;;5053784;28;20032;-60
2021/12/17 03:33:20;;;;;;;18.90;4.22;;;;;;;;;;5052136;28;20017;-51
2021/12/17 03:35:47;;;;;;;23.10;3.60;;;;;;;;;;5055342;28;20032;-55
2021/12/17 03:38:12;;;;;;;16.98;3.55;;;;;;;;;;5055111;28;20025;-60
2021/12/17 03:40:40;;;;;;;14.85;3.25;;;;;;;;;;5054841;28;20029;-64
2021/12/17 03:43:12;;;;;;;12.82;3.38;;;;;;;;;;5054985;28;20029;-58
2021/12/17 03:45:38;;;;;;;13.35;3.35;;;;;;;;;;5052674;28;20163;-57
2021/12/17 03:48:04;;;;;;;16.13;3.50;;;;;;;;;;5054554;28;20103;-57
2021/12/17 03:50:33;;;;;;;23.05;4.25;;;;;;;;;;5054834;28;20037;-55
2021/12/17 03:52:58;;;;;;;20.88;4.30;;;;;;;;;;5054878;28;20071;-54
2021/12/17 03:55:24;;;;;;;20.92;3.83;;;;;;;;;;5052358;28;20467;-55
2021/12/17 03:57:49;;;;;;;16.10;3.55;;;;;;;;;;5054899;28;20033;-60
2021/12/17 04:00:15;;;;;;;18.75;4.50;;;;;;;;;;5052435;28;20028;-55
2021/12/17 04:02:41;;;;;;;20.60;4.32;;;;;;;;;;5054035;28;20025;-55
2021/12/17 04:05:07;;;;;;;18.42;3.95;;;;;;;;;;5054884;28;20025;-64
2021/12/17 04:07:33;;;;;;;16.92;4.63;;;;;;;;;;5051677;28;20024;-63
2021/12/17 04:09:58;;;;;;;21.65;4.78;;;;;;;;;;5050705;28;20441;-63
2021/12/17 04:12:38;;;;;;;19.83;4.07;;;;;;;;;;5051909;28;20021;-61
2021/12/17 04:15:04;;;;;;;20.23;4.10;;;;;;;;;;5050009;28;20035;-61
2021/12/17 04:17:38;;;;;;;22.88;3.95;;;;;;;;;;5051698;28;20025;-63
2021/12/17 04:20:04;;;;;;;22.55;5.25;;;;;;;;;;5054373;28;20498;-61
2021/12/17 04:22:30;;;;;;;15.60;4.18;;;;;;;;;;5054544;28;20029;-60
2021/12/17 04:24:55;;;;;;;23.52;4.85;;;;;;;;;;5052202;28;20024;-57
2021/12/17 04:27:21;;;;;;;23.92;4.65;;;;;;;;;;5054300;28;20033;-63
2021/12/17 04:29:46;;;;;;;20.67;5.20;;;;;;;;;;5053738;28;20116;-58
2021/12/17 04:32:12;;;;;;;16.95;4.35;;;;;;;;;;5053185;28;20021;-57
2021/12/17 04:34:37;;;;;;;26.13;4.93;;;;;;;;;;5056228;28;20059;-61
2021/12/17 04:37:03;;;;;;;17.33;4.97;;;;;;;;;;5052076;28;20028;-54
2021/12/17 04:39:29;;;;;;;22.85;3.13;;;;;;;;;;5052179;28;20704;-63
2021/12/17 04:42:00;;;;;;;16.00;4.07;;;;;;;;;;5050688;28;20041;-59
2021/12/17 04:44:29;;;;;;;24.60;4.07;;;;;;;;;;5053490;28;20098;-62
2021/12/17 04:57:36;;;;;;;24.23;4.60;;;;;;;;;;5050671;28;20040;-62
2021/12/17 05:00:26;;;;;;;17.92;5.45;;;;;;;;;;5051459;28;20033;-57
2021/12/17 05:02:55;;;;;;;25.98;5.80;;;;;;;;;;5052146;28;20053;-59
2021/12/17 05:05:26;;;;;;;25.20;3.97;;;;;;;;;;5048798;28;20082;-56
2021/12/17 05:07:56;;;;;;;25.67;4.47;;;;;;;;;;5050576;28;20121;-59
2021/12/17 05:18:34;;;;;;;24.80;5.28;;;;;;;;;;5052191;28;20120;-54
2021/12/17 05:21:07;;;;;;;13.70;5.20;;;;;;;;;;5048366;28;20052;-55
2021/12/17 05:23:37;;;;;;;23.85;4.40;;;;;;;;;;5053045;28;20079;-57
2021/12/17 05:26:09;;;;;;;29.20;5.28;;;;;;;;;;5050513;28;20041;-55
2021/12/17 05:28:35;;;;;;;15.43;3.60;;;;;;;;;;5048693;28;20091;-55
2021/12/17 05:31:00;;;;;;;23.17;4.95;;;;;;;;;;5050849;28;20062;-56
2021/12/17 05:33:27;;;;;;;18.58;4.47;;;;;;;;;;5053765;28;20079;-55
2021/12/17 05:35:53;;;;;;;16.20;3.58;;;;;;;;;;5050779;28;20028;-60
2021/12/17 05:38:20;;;;;;;13.23;4.47;;;;;;;;;;5052130;28;20021;-56
2021/12/17 05:40:46;;;;;;;29.13;5.05;;;;;;;;;;5049180;28;20041;-55
2021/12/17 05:43:14;;;;;;;20.45;4.45;;;;;;;;;;5049592;28;20017;-55
2021/12/17 05:48:26;;;;;;;27.67;5.50;;;;;;;;;;5051431;28;20028;-56
2021/12/17 05:50:58;;;;;;;23.88;7.03;;;;;;;;;;5049244;28;20028;-55
2021/12/17 05:53:24;;;;;;;24.92;5.15;;;;;;;;;;5055193;28;20025;-57
2021/12/17 05:55:51;;;;;;;19.85;4.75;;;;;;;;;;5049779;28;20029;-56
2021/12/17 05:58:17;;;;;;;29.00;5.72;;;;;;;;;;5049436;28;20025;-57
2021/12/17 06:00:44;;;;;;;21.08;5.22;;;;;;;;;;5049734;28;20041;-54
2021/12/17 06:03:10;;;;;;;26.85;5.55;;;;;;;;;;5051223;28;20024;-57
2021/12/17 06:05:35;;;;;;;20.98;4.85;;;;;;;;;;5053633;28;20484;-63
2021/12/17 06:08:01;;;;;;;26.85;5.07;;;;;;;;;;5052140;28;20029;-59
2021/12/17 06:10:27;;;;;;;19.95;4.35;;;;;;;;;;5050564;28;20021;-60
2021/12/17 06:12:52;;;;;;;25.08;4.40;;;;;;;;;;5051739;28;20396;-61
2021/12/17 06:15:20;;;;;;;22.98;4.60;;;;;;;;;;5052072;28;20079;-59
2021/12/17 06:17:46;;;;;;;25.73;4.57;;;;;;;;;;5049493;28;20033;-62
2021/12/17 06:20:13;;;;;;;26.05;5.05;;;;;;;;;;5052043;28;20025;-60
2021/12/17 06:22:39;;;;;;;21.65;4.85;;;;;;;;;;5052150;28;20048;-62
2021/12/17 06:25:07;;;;;;;20.73;4.78;;;;;;;;;;5051843;28;20464;-60
2021/12/17 06:27:33;;;;;;;18.90;3.83;;;;;;;;;;5051609;28;20020;-61
2021/12/17 06:29:59;;;;;;;27.27;4.97;;;;;;;;;;5050602;28;20079;-57
2021/12/17 06:32:25;;;;;;;25.33;4.05;;;;;;;;;;5050125;28;20029;-59
2021/12/17 06:34:51;;;;;;;22.10;4.28;;;;;;;;;;5051990;28;20059;-61
2021/12/17 06:37:17;;;;;;;26.75;4.65;;;;;;;;;;5051799;28;20024;-58
2021/12/17 06:39:44;;;;;;;28.98;5.15;;;;;;;;;;5046900;28;20521;-55
2021/12/17 06:42:11;;;;;;;19.08;3.80;;;;;;;;;;5048420;28;20056;-54
2021/12/17 06:44:38;;;;;;;18.95;4.18;;;;;;;;;;5059294;28;20079;-58
2021/12/17 06:47:26;;;;;;;19.60;5.05;;;;;;;;;;5051758;28;20025;-62
2021/12/17 07:06:09;;;;;;;23.13;4.63;;;;;;;;;;5050752;28;20130;-63
2021/12/17 07:11:36;;;;;;;24.00;4.32;;;;;;;;;;5048192;28;20028;-56
2021/12/17 07:22:24;;;;;;;18.30;3.97;;;;;;;;;;5051910;28;20087;-55
2021/12/17 07:35:36;;;;;;;19.35;4.22;;;;;;;;;;5056923;28;20484;-64
2021/12/17 07:40:46;;;;;;;19.17;4.30;;;;;;;;;;5057301;28;20143;-60
2021/12/17 07:43:14;;;;;;;21.70;4.78;;;;;;;;;;5051306;28;20021;-59
2021/12/17 07:45:40;;;;;;;21.30;4.50;;;;;;;;;;5052021;28;20021;-58
2021/12/17 07:48:06;;;;;;;20.98;4.22;;;;;;;;;;5051391;28;20029;-58
2021/12/17 07:50:32;;;;;;;18.83;4.00;;;;;;;;;;5051823;28;20033;-56
2021/12/17 07:52:57;;;;;;;19.30;3.83;;;;;;;;;;5051415;28;20013;-55
2021/12/17 07:55:23;;;;;;;28.00;9.98;;;;;;;;;;5050616;28;20025;-58
2021/12/17 07:57:48;;;;;;;12.85;3.72;;;;;;;;;;5053086;28;20113;-55
2021/12/17 08:00:14;;;;;;;18.15;4.35;;;;;;;;;;5050774;28;20450;-58
2021/12/17 08:02:40;;;;;;;25.90;4.05;;;;;;;;;;5042423;28;20033;-59
2021/12/17 08:05:06;;;;;;;21.02;3.97;;;;;;;;;;5048054;28;20021;-63
2021/12/17 08:07:31;;;;;;;22.20;4.75;;;;;;;;;;5050229;28;20024;-63
2021/12/17 08:09:57;;;;;;;21.35;4.18;;;;;;;;;;5053602;28;20196;-63
2021/12/17 08:12:23;;;;;;;43.25;5.18;;;;;;;;;;5056098;28;20392;-64
2021/12/17 08:14:49;;;;;;;23.80;4.18;;;;;;;;;;5052884;28;20057;-60
2021/12/17 08:25:11;;;;;;;27.38;7.88;;;;;;;;;;5055171;28;20083;-64
2021/12/17 08:28:04;;;;;;;25.80;4.00;;;;;;;;;;5054722;28;20057;-59
2021/12/17 08:30:38;;;;;;;41.10;15.35;;;;;;;;;;5053791;28;20029;-61
2021/12/17 08:33:05;;;;;;;31.20;6.80;;;;;;;;;;5053069;28;20488;-61
2021/12/17 08:35:35;;;;;;;48.15;14.85;;;;;;;;;;5054624;28;20033;-63
2021/12/17 08:38:04;;;;;;;31.05;6.38;;;;;;;;;;5054089;28;20046;-63
2021/12/17 08:40:30;;;;;;;26.88;6.13;;;;;;;;;;5053560;28;20430;-61
2021/12/17 08:42:56;;;;;;;33.22;6.75;;;;;;;;;;5053226;28;20025;-62
2021/12/17 08:45:22;;;;;;;23.80;4.43;;;;;;;;;;5054351;28;20136;-62
2021/12/17 08:47:51;;;;;;;19.52;3.95;;;;;;;;;;5054162;28;20377;-63
2021/12/17 08:50:19;;;;;;;15.82;4.10;;;;;;;;;;5054482;28;20035;-63
2021/12/17 08:52:46;;;;;;;18.70;5.07;;;;;;;;;;5053585;28;20029;-62
2021/12/17 08:55:11;;;;;;;25.85;4.85;;;;;;;;;;5057772;28;20071;-60
2021/12/17 08:57:38;;;;;;;27.17;4.15;;;;;;;;;;5054394;28;20419;-63
2021/12/17 09:00:07;;;;;;;22.90;4.25;;;;;;;;;;5050166;28;20033;-63
2021/12/17 09:02:35;;;;;;;24.27;3.85;;;;;;;;;;5051755;28;20029;-58
2021/12/17 09:05:03;;;;;;;19.27;4.05;;;;;;;;;;5053856;28;20242;-60
2021/12/17 09:07:28;;;;;;;22.45;4.40;;;;;;;;;;5054031;28;20037;-62
2021/12/17 09:09:54;;;;;;;28.60;4.82;;;;;;;;;;5054214;28;20392;-61
2021/12/17 09:12:19;;;;;;;21.77;3.88;;;;;;;;;;5046359;28;20033;-60
2021/12/17 09:14:45;;;;;;;26.63;6.65;;;;;;;;;;5052507;28;20025;-62
2021/12/17 09:17:10;;;;;;;31.02;11.48;;;;;;;;;;5045584;28;20021;-56
2021/12/17 09:19:36;;;;;;;34.38;16.30;;;;;;;;;;5054512;28;20533;-55
2021/12/17 09:22:02;;;;;;;100.60;40.88;;;;;;;;;;5054372;28;20025;-55
2021/12/17 09:24:28;;;;;;;29.85;9.25;;;;;;;;;;5053720;28;20082;-54
2021/12/17 09:26:54;;;;;;;25.00;12.35;;;;;;;;;;5053165;28;20036;-54
2021/12/17 09:29:19;;;;;;;32.55;14.40;;;;;;;;;;5053310;28;20076;-57
2021/12/17 09:31:45;;;;;;;13.40;3.13;;;;;;;;;;5053670;28;20025;-57
2021/12/17 09:34:10;;;;;;;12.73;3.28;;;;;;;;;;5053521;28;20067;-55
2021/12/17 09:36:36;;;;;;;19.15;3.90;;;;;;;;;;5053664;28;20043;-53
2021/12/17 09:39:03;;;;;;;17.10;4.10;;;;;;;;;;5054374;28;20024;-54
2021/12/17 09:41:28;;;;;;;17.73;4.20;;;;;;;;;;5053182;28;20102;-55
2021/12/17 09:43:54;;;;;;;41.53;13.63;;;;;;;;;;5053242;28;20021;-55
2021/12/17 09:46:23;;;;;;;32.85;6.63;;;;;;;;;;5053508;28;20490;-56
2021/12/17 09:48:50;;;;;;;12.23;3.35;;;;;;;;;;5040361;28;20136;-54
2021/12/17 09:51:18;;;;;;;118.75;33.45;;;;;;;;;;5052803;28;20460;-53
2021/12/17 09:53:45;;;;;;;53.10;14.23;;;;;;;;;;5053377;28;20051;-54
2021/12/17 09:56:11;;;;;;;28.25;6.40;;;;;;;;;;5052844;28;20017;-55
2021/12/17 09:58:37;;;;;;;26.23;4.60;;;;;;;;;;5053242;28;20533;-56
2021/12/17 10:01:04;;;;;;;17.45;3.83;;;;;;;;;;5053136;28;20484;-55
2021/12/17 10:03:30;;;;;;;21.58;3.80;;;;;;;;;;5052002;28;20020;-55
2021/12/17 10:05:56;;;;;;;21.80;3.78;;;;;;;;;;5053015;28;20088;-63
2021/12/17 10:08:24;;;;;;;20.27;4.03;;;;;;;;;;5052675;28;20025;-61
2021/12/17 10:10:58;;;;;;;15.40;3.25;;;;;;;;;;5052886;28;20064;-59
2021/12/17 10:13:29;;;;;;;21.27;3.88;;;;;;;;;;5052673;28;20067;-61
2021/12/17 10:16:06;;;;;;;16.85;3.20;;;;;;;;;;5052859;28;20025;-61
2021/12/17 10:18:45;;;;;;;19.77;4.57;;;;;;;;;;5052567;28;20024;-63
2021/12/17 10:21:16;;;;;;;19.48;3.83;;;;;;;;;;5052517;28;20075;-63
2021/12/17 10:23:43;;;;;;;20.52;3.75;;;;;;;;;;5052602;28;20032;-58
2021/12/17 10:26:15;;;;;;;13.02;3.60;;;;;;;;;;5052560;28;20108;-59
2021/12/17 10:29:04;;;;;;;24.45;4.25;;;;;;;;;;5051166;28;20033;-64
2021/12/17 10:31:31;;;;;;;16.27;3.20;;;;;;;;;;5052318;28;20063;-64
2021/12/17 10:34:00;;;;;;;16.98;6.70;;;;;;;;;;5052160;28;20099;-64
2021/12/17 10:36:33;;;;;;;26.63;8.02;;;;;;;;;;5052760;28;20033;-64
2021/12/17 10:39:03;;;;;;;15.70;3.88;;;;;;;;;;5051237;28;20065;-63
2021/12/17 10:41:30;;;;;;;14.02;3.17;;;;;;;;;;5052445;28;20626;-61
2021/12/17 10:44:06;;;;;;;19.20;3.45;;;;;;;;;;5052166;28;20425;-65
2021/12/17 10:46:34;;;;;;;19.58;3.92;;;;;;;;;;5052299;28;20036;-65
2021/12/17 10:49:12;;;;;;;34.53;4.53;;;;;;;;;;5051959;28;20037;-64
2021/12/17 10:54:13;;;;;;;16.08;3.55;;;;;;;;;;5052399;28;20025;-65
2021/12/17 10:56:45;;;;;;;20.55;4.78;;;;;;;;;;5052225;28;20443;-63
2021/12/17 10:59:19;;;;;;;16.73;3.40;;;;;;;;;;5050812;28;20017;-63
2021/12/17 11:01:54;;;;;;;16.15;4.07;;;;;;;;;;5051708;28;20037;-65
2021/12/17 11:04:31;;;;;;;26.63;6.53;;;;;;;;;;5051906;28;20415;-63
2021/12/17 11:07:03;;;;;;;16.38;4.60;;;;;;;;;;5049652;28;20060;-61
2021/12/17 11:09:35;;;;;;;18.98;5.97;;;;;;;;;;5049626;28;20040;-64
2021/12/17 11:12:12;;;;;;;20.25;5.47;;;;;;;;;;5046077;28;20496;-63
2021/12/17 11:14:37;;;;;;;20.02;5.45;;;;;;;;;;5043413;28;20434;-55
2021/12/17 11:17:04;;;;;;;31.17;6.95;;;;;;;;;;5049151;28;20040;-64
2021/12/17 11:19:30;;;;;;;24.38;7.10;;;;;;;;;;5048616;28;20043;-65
2021/12/17 11:21:56;;;;;;;28.33;9.52;;;;;;;;;;5049488;28;20065;-61
2021/12/17 11:24:22;;;;;;;34.08;8.48;;;;;;;;;;5050615;28;20082;-56
2021/12/17 11:26:49;;;;;;;43.13;11.05;;;;;;;;;;5050271;28;20135;-58
2021/12/17 11:29:16;;;;;;;33.55;8.75;;;;;;;;;;5042339;28;20041;-55
2021/12/17 11:31:42;;;;;;;26.70;11.02;;;;;;;;;;5051538;28;20029;-58
2021/12/17 11:34:09;;;;;;;20.33;7.28;;;;;;;;;;5046885;28;20035;-60
2021/12/17 11:36:35;;;;;;;22.90;3.63;;;;;;;;;;5048508;28;20030;-56
2021/12/17 11:39:23;;;;;;;21.48;7.38;;;;;;;;;;5050716;28;20043;-64
2021/12/17 11:41:58;;;;;;;13.40;4.20;;;;;;;;;;5050390;28;20102;-63
2021/12/17 11:44:38;;;;;;;22.33;5.85;;;;;;;;;;5055381;28;20100;-56
2021/12/17 11:47:07;;;;;;;23.83;7.45;;;;;;;;;;5055518;28;20414;-58
2021/12/17 11:49:47;;;;;;;19.83;4.82;;;;;;;;;;5052806;28;20032;-58
2021/12/17 11:52:14;;;;;;;29.85;9.50;;;;;;;;;;5059254;28;20033;-55
2021/12/17 11:54:40;;;;;;;31.58;9.20;;;;;;;;;;5046723;28;20480;-58
2021/12/17 11:57:17;;;;;;;43.30;15.05;;;;;;;;;;5047199;28;20431;-57
2021/12/17 11:59:45;;;;;;;40.05;13.73;;;;;;;;;;5048859;28;20040;-56
2021/12/17 12:02:24;;;;;;;26.27;11.43;;;;;;;;;;5051347;28;20036;-55
2021/12/17 12:05:00;;;;;;;17.08;7.05;;;;;;;;;;5067434;28;20041;-54
2021/12/17 12:07:25;;;;;;;21.25;3.70;;;;;;;;;;5052022;28;20414;-63
2021/12/17 12:09:57;;;;;;;16.27;3.30;;;;;;;;;;5053711;28;20024;-64
2021/12/17 12:12:34;;;;;;;19.67;3.38;;;;;;;;;;5047596;28;20119;-64
2021/12/17 12:15:28;;;;;;;15.98;3.53;;;;;;;;;;5053045;28;20413;-64
2021/12/17 12:18:17;;;;;;;18.98;3.28;;;;;;;;;;5054862;28;20029;-63
2021/12/17 12:20:52;;;;;;;17.67;4.22;;;;;;;;;;5055424;28;20486;-63
2021/12/17 12:23:29;;;;;;;25.02;6.18;;;;;;;;;;5044691;28;20026;-63
2021/12/17 12:26:01;;;;;;;20.80;4.30;;;;;;;;;;5049463;28;20437;-64
2021/12/17 12:28:45;;;;;;;26.17;5.82;;;;;;;;;;5047189;28;20033;-64
2021/12/17 12:31:17;;;;;;;20.70;4.13;;;;;;;;;;5049453;28;20037;-64
2021/12/17 12:34:00;;;;;;;28.58;8.40;;;;;;;;;;5058772;28;20107;-61
2021/12/17 12:36:55;;;;;;;17.42;3.72;;;;;;;;;;5043808;28;20116;-64
2021/12/17 12:39:43;;;;;;;23.42;4.47;;;;;;;;;;5045332;28;20151;-62
2021/12/17 12:42:24;;;;;;;18.45;4.65;;;;;;;;;;5066601;28;20053;-63
2021/12/17 12:44:50;;;;;;;40.42;11.85;;;;;;;;;;5045870;28;20036;-62
2021/12/17 12:47:25;;;;;;;100.13;21.80;;;;;;;;;;5045390;28;20501;-64
2021/12/17 12:50:03;;;;;;;105.38;31.58;;;;;;;;;;5046314;28;20488;-63
2021/12/17 12:52:29;;;;;;;22.20;5.00;;;;;;;;;;5054299;28;20107;-64
2021/12/17 12:55:20;;;;;;;29.30;10.98;;;;;;;;;;5054715;28;20140;-63
2021/12/17 12:58:04;;;;;;;30.02;11.52;;;;;;;;;;5030303;28;20068;-63
2021/12/17 13:00:34;;;;;;;31.73;11.38;;;;;;;;;;5039086;28;20043;-62
2021/12/17 13:03:09;;;;;;;23.35;5.97;;;;;;;;;;5027672;28;20133;-62
2021/12/17 13:05:36;;;;;;;52.45;24.90;;;;;;;;;;5031759;28;20038;-61
2021/12/17 13:08:04;;;;;;;30.33;9.50;;;;;;;;;;5031443;28;20029;-63
2021/12/17 13:10:36;;;;;;;19.92;6.43;;;;;;;;;;5028431;28;20026;-59
2021/12/17 13:13:07;;;;;;;22.88;8.38;;;;;;;;;;5027552;28;20052;-58
2021/12/17 13:23:22;;;;;;;14.63;4.20;;;;;;;;;;5024147;28;20025;-58
2021/12/17 13:26:01;;;;;;;15.57;3.33;;;;;;;;;;5031047;28;20068;-64
2021/12/17 13:28:27;;;;;;;22.65;4.88;;;;;;;;;;5025937;28;20067;-61
2021/12/17 13:30:56;;;;;;;20.60;4.03;;;;;;;;;;5031654;28;20021;-63
2021/12/17 13:33:21;;;;;;;20.80;3.90;;;;;;;;;;5029651;28;20029;-60
2021/12/17 13:35:47;;;;;;;20.95;5.18;;;;;;;;;;5051923;28;20431;-62
2021/12/17 13:38:12;;;;;;;15.98;3.70;;;;;;;;;;5053799;28;20033;-58
2021/12/17 13:40:41;;;;;;;19.77;4.85;;;;;;;;;;5053066;28;20484;-62
2021/12/17 13:43:08;;;;;;;16.38;3.38;;;;;;;;;;5053203;28;20025;-58
2021/12/17 13:45:35;;;;;;;17.33;4.10;;;;;;;;;;5035373;28;20032;-55
2021/12/17 13:48:00;;;;;;;24.50;5.03;;;;;;;;;;5052638;28;20029;-57
2021/12/17 13:50:40;;;;;;;15.30;3.35;;;;;;;;;;5052780;28;20017;-56
2021/12/17 13:53:12;;;;;;;26.43;4.93;;;;;;;;;;5053407;28;20021;-56
2021/12/17 13:55:41;;;;;;;23.80;3.90;;;;;;;;;;5052833;28;20266;-57
2021/12/17 13:58:13;;;;;;;43.60;15.48;;;;;;;;;;5048378;28;20040;-57
2021/12/17 14:00:49;;;;;;;32.17;6.35;;;;;;;;;;5052556;28;20372;-58
2021/12/17 14:03:16;;;;;;;19.83;3.80;;;;;;;;;;5052815;28;20471;-64
2021/12/17 14:05:48;;;;;;;19.92;3.97;;;;;;;;;;5052776;28;20068;-64
2021/12/17 14:08:17;;;;;;;19.35;4.03;;;;;;;;;;5052451;28;20033;-63
2021/12/17 14:10:44;;;;;;;32.45;5.88;;;;;;;;;;5054446;28;20110;-64
2021/12/17 14:13:19;;;;;;;14.25;4.28;;;;;;;;;;5046795;28;20082;-61
2021/12/17 14:15:45;;;;;;;21.63;4.97;;;;;;;;;;5050748;28;20506;-63
2021/12/17 14:18:16;;;;;;;14.90;3.85;;;;;;;;;;5052083;28;20029;-63
2021/12/17 14:20:41;;;;;;;18.65;3.28;;;;;;;;;;5051651;28;20016;-64
2021/12/17 14:23:19;;;;;;;22.98;4.97;;;;;;;;;;5052081;28;20402;-62
2021/12/17 14:26:09;;;;;;;17.98;4.85;;;;;;;;;;5037569;28;20017;-63
2021/12/17 14:28:38;;;;;;;17.60;5.07;;;;;;;;;;5045137;28;20452;-57
2021/12/17 14:31:13;;;;;;;20.73;3.95;;;;;;;;;;5052842;28;20360;-62
2021/12/17 14:33:47;;;;;;;20.10;3.55;;;;;;;;;;5049170;28;20112;-60
2021/12/17 14:36:25;;;;;;;11.98;3.90;;;;;;;;;;5052553;28;20025;-64
2021/12/17 14:39:05;;;;;;;16.27;3.65;;;;;;;;;;5052066;28;20032;-63
2021/12/17 14:41:45;;;;;;;18.92;3.13;;;;;;;;;;5043113;28;20041;-60
2021/12/17 14:47:09;;;;;;;16.33;3.20;;;;;;;;;;5049812;28;20542;-64
2021/12/17 15:00:34;;;;;;;23.58;7.75;;;;;;;;;;5049648;28;20035;-60
2021/12/17 15:05:34;;;;;;;12.93;3.63;;;;;;;;;;5060830;28;20036;-65
2021/12/17 15:08:02;;;;;;;48.42;18.63;;;;;;;;;;5063150;28;20024;-63
2021/12/17 15:10:29;;;;;;;23.02;7.88;;;;;;;;;;5040219;28;20405;-62
2021/12/17 15:12:58;;;;;;;18.00;3.88;;;;;;;;;;5052184;28;20599;-65
2021/12/17 15:15:26;;;;;;;19.90;5.65;;;;;;;;;;5051570;28;20036;-61
2021/12/17 15:17:54;;;;;;;18.60;7.95;;;;;;;;;;5051517;28;20033;-63
2021/12/17 15:20:22;;;;;;;16.63;6.97;;;;;;;;;;5049238;28;20491;-64
2021/12/17 15:22:48;;;;;;;15.65;5.22;;;;;;;;;;5050901;28;20375;-64
2021/12/17 15:25:15;;;;;;;17.60;4.68;;;;;;;;;;5047521;28;20033;-62
2021/12/17 15:27:42;;;;;;;18.88;4.63;;;;;;;;;;5070916;28;20078;-65
2021/12/17 15:30:29;;;;;;;15.70;4.03;;;;;;;;;;5051285;28;20025;-64
2021/12/17 15:32:55;;;;;;;16.63;4.80;;;;;;;;;;5048371;28;20048;-64
2021/12/17 15:35:23;;;;;;;21.85;3.47;;;;;;;;;;5065454;28;20094;-60
2021/12/17 15:37:50;;;;;;;15.13;4.10;;;;;;;;;;5056525;28;20036;-65
2021/12/17 15:40:17;;;;;;;19.08;4.50;;;;;;;;;;5044071;28;20375;-58
2021/12/17 15:42:42;;;;;;;18.88;4.93;;;;;;;;;;5051134;28;20423;-59
2021/12/17 15:45:09;;;;;;;23.23;5.00;;;;;;;;;;5052241;28;20021;-55
2021/12/17 15:47:35;;;;;;;12.65;3.13;;;;;;;;;;5054496;28;20085;-58
2021/12/17 15:50:01;;;;;;;14.60;4.85;;;;;;;;;;5055447;28;20108;-65
2021/12/17 15:52:28;;;;;;;13.63;4.28;;;;;;;;;;5050310;28;20487;-63
2021/12/17 15:54:53;;;;;;;21.63;5.82;;;;;;;;;;5050810;28;20111;-58
2021/12/17 15:57:19;;;;;;;15.50;3.42;;;;;;;;;;5051846;28;20107;-58
2021/12/17 15:59:48;;;;;;;16.00;4.25;;;;;;;;;;5054973;28;20021;-59
2021/12/17 16:02:13;;;;;;;13.73;5.20;;;;;;;;;;5047072;28;20031;-59
2021/12/17 16:04:42;;;;;;;10.50;3.75;;;;;;;;;;5044905;28;20506;-55
2021/12/17 16:07:10;;;;;;;14.77;4.45;;;;;;;;;;5050992;28;20431;-64
2021/12/17 16:10:17;;;;;;;15.18;5.00;;;;;;;;;;5048133;28;20048;-60
2021/12/17 16:22:50;;;;;;;19.15;4.60;;;;;;;;;;5058513;28;20521;-61
2021/12/17 16:25:16;;;;;;;13.60;3.30;;;;;;;;;;5054646;28;20057;-65
2021/12/17 16:27:41;;;;;;;10.18;2.83;;;;;;;;;;5054518;28;20017;-64
2021/12/17 16:30:08;;;;;;;16.63;3.40;;;;;;;;;;5053377;28;20025;-61
2021/12/17 16:32:34;;;;;;;16.10;3.50;;;;;;;;;;5052235;28;20044;-63
2021/12/17 16:35:00;;;;;;;11.98;3.20;;;;;;;;;;5053746;28;20063;-64
2021/12/17 16:37:25;;;;;;;14.50;2.97;;;;;;;;;;5058182;28;20095;-64
2021/12/17 16:39:51;;;;;;;11.10;3.05;;;;;;;;;;5054595;28;20029;-64
2021/12/17 16:42:17;;;;;;;19.83;3.42;;;;;;;;;;5054396;28;20040;-64
2021/12/17 16:47:30;;;;;;;13.27;3.80;;;;;;;;;;5054057;28;20021;-58
2021/12/17 16:49:56;;;;;;;14.43;3.55;;;;;;;;;;5053832;28;20056;-63
2021/12/17 16:52:26;;;;;;;16.17;3.70;;;;;;;;;;5050480;28;20114;-64
2021/12/17 16:54:53;;;;;;;20.02;3.42;;;;;;;;;;5050190;28;20361;-62
2021/12/17 16:57:18;;;;;;;13.57;3.47;;;;;;;;;;5054106;28;20047;-64
2021/12/17 16:59:44;;;;;;;19.70;6.40;;;;;;;;;;5053795;28;20025;-64
2021/12/17 17:02:09;;;;;;;11.68;3.20;;;;;;;;;;5054022;28;20025;-64
2021/12/17 17:04:35;;;;;;;14.73;4.13;;;;;;;;;;5053341;28;20407;-59
2021/12/17 17:07:00;;;;;;;14.57;3.97;;;;;;;;;;5052021;28;20064;-64
2021/12/17 17:09:27;;;;;;;13.50;4.47;;;;;;;;;;5053716;28;20043;-64
2021/12/17 17:12:00;;;;;;;13.40;5.03;;;;;;;;;;5054185;28;20098;-64
2021/12/17 17:14:25;;;;;;;11.88;4.57;;;;;;;;;;5053950;28;20017;-64
2021/12/17 17:16:51;;;;;;;15.55;5.43;;;;;;;;;;5053974;28;20032;-64
2021/12/17 17:19:16;;;;;;;13.30;4.22;;;;;;;;;;5053687;28;20418;-64
2021/12/17 17:21:42;;;;;;;13.40;3.88;;;;;;;;;;5053816;28;20024;-63
2021/12/17 17:24:10;;;;;;;11.90;3.22;;;;;;;;;;5054006;28;20074;-63
2021/12/17 17:26:36;;;;;;;13.68;4.38;;;;;;;;;;5053373;28;20100;-61
2021/12/17 17:29:03;;;;;;;13.27;3.63;;;;;;;;;;5053599;28;20115;-63
2021/12/17 17:31:30;;;;;;;19.90;4.97;;;;;;;;;;5053263;28;20028;-63
2021/12/17 17:33:56;;;;;;;24.45;6.00;;;;;;;;;;5053176;28;20537;-62
2021/12/17 17:36:23;;;;;;;117.90;41.25;;;;;;;;;;5052153;28;20029;-63
2021/12/17 17:38:49;;;;;;;37.78;14.77;;;;;;;;;;5053567;28;20017;-62
2021/12/17 17:41:18;;;;;;;29.38;10.85;;;;;;;;;;5053238;28;20066;-64
2021/12/17 17:43:43;;;;;;;14.57;3.83;;;;;;;;;;5053683;28;20021;-64
2021/12/17 17:46:09;;;;;;;70.20;20.40;;;;;;;;;;5053159;28;20357;-62
2021/12/17 17:48:36;;;;;;;58.97;15.30;;;;;;;;;;5052607;28;20039;-63
2021/12/17 17:51:01;;;;;;;88.80;36.40;;;;;;;;;;5053220;28;20109;-56
2021/12/17 17:53:27;;;;;;;12.63;5.60;;;;;;;;;;5053336;28;20108;-56
2021/12/17 17:55:53;;;;;;;28.20;13.18;;;;;;;;;;5053179;28;20083;-54
2021/12/17 17:58:18;;;;;;;30.30;14.00;;;;;;;;;;5053193;28;20562;-51
2021/12/17 18:00:45;;;;;;;20.45;9.73;;;;;;;;;;5053005;28;20360;-56
2021/12/17 18:03:12;;;;;;;15.68;4.82;;;;;;;;;;5053061;28;20096;-55
2021/12/17 18:05:38;;;;;;;16.88;5.38;;;;;;;;;;5053028;28;20447;-57
2021/12/17 18:08:05;;;;;;;40.17;18.30;;;;;;;;;;5052784;28;20057;-64
2021/12/17 18:10:30;;;;;;;19.25;8.32;;;;;;;;;;5052806;28;20083;-63
2021/12/17 18:12:59;;;;;;;18.08;6.20;;;;;;;;;;5052902;28;20025;-64